In Rescue
 
Open Full Screen Window  High Contrast Mode
Wind Gusting 00 knots
05
March 01, 2024 2:52 PM EST
Weather Information
Wind Direction
  160 °
Wind Speed
  05 kt (6 mph)
Wind Gust
  00 kt (0 mph)
Altimeter
30.08 in
Visibility
10 SM
Temperature
07° C
45° F
Dewpoint
-05° C
23° F
Humidity
42%
Sky Condition
Clear
VFR

METAR KDRM 011952Z AUTO 16005KT 10SM CLR 07/M05 A3008 RMK AO2 T00731050

FAA Disclaimer: The data displayed is for advisory purposes only and is not to be used for flight planning or operations.